Terminal Aerodrome Forecast
Issued by NWS

Home | Current Version | Previous Version | Text Only | Print | Product List | Glossary On
Versions: 1 2 3 4 5 6 7 8 9 10 11 12 13 14 15 16 17 18 19 20 21 22
000
FTUS43 KAPX 302320
TAFPLN
TAF
KPLN 302320Z 3100/3124 29005KT P6SM VCSH BKN030
     FM310200 34007KT 5SM SHRA BR OVC025
     FM311000 35018G28KT 4SM -SHSN OVC015
     FM311500 34020G32KT 6SM -SHSN OVC025=

USA.gov is the U.S. government's official web portal to all federal, state and local government web resources and services.